Time;durP1;ratioP1;P1;durP2;ratioP2;P2;SDS_P1;SDS_P2;PMS_P1;PMS_P2;Temp;Humidity;BMP_temperature;BMP_pressure;BME280_temperature;BME280_humidity;BME280_pressure;Samples;Min_cycle;Max_cycle;Signal;HPM_P1;HPM_P2
2022/07/12 00:01:59;;;;;;;5.75;3.20;;;20.20;99.20;;;;;;5105205;28;20029;-89
2022/07/12 00:04:24;;;;;;;5.80;3.42;;;20.20;99.20;;;;;;5024328;28;20083;-89
2022/07/12 00:06:50;;;;;;;4.70;2.92;;;20.20;99.30;;;;;;5035245;28;20060;-87
2022/07/12 00:09:16;;;;;;;4.93;2.90;;;20.20;99.30;;;;;;5071387;28;20026;-89
2022/07/12 00:11:42;;;;;;;7.28;2.83;;;20.10;99.40;;;;;;5097623;28;20055;-89
2022/07/12 00:14:09;;;;;;;4.18;2.35;;;20.10;99.60;;;;;;5099912;28;20017;-90
2022/07/12 00:16:35;;;;;;;5.03;2.72;;;20.10;99.70;;;;;;5031565;28;20025;-89
2022/07/12 00:19:00;;;;;;;3.72;1.85;;;20.00;99.80;;;;;;5018908;28;20498;-88
2022/07/12 00:21:26;;;;;;;2.00;1.30;;;20.00;99.90;;;;;;5082746;28;20073;-89
2022/07/12 00:23:52;;;;;;;2.22;1.52;;;20.00;99.90;;;;;;5082439;28;20029;-90
2022/07/12 00:26:17;;;;;;;2.25;1.40;;;19.90;99.80;;;;;;5100421;28;20038;-89
2022/07/12 00:28:43;;;;;;;1.73;1.20;;;19.80;99.90;;;;;;5085214;28;20034;-89
2022/07/12 00:31:09;;;;;;;1.65;1.50;;;19.80;99.90;;;;;;5083039;28;20082;-90
2022/07/12 00:33:35;;;;;;;2.15;1.30;;;19.80;99.90;;;;;;5099497;28;20026;-89
2022/07/12 00:36:01;;;;;;;1.55;1.38;;;19.70;99.90;;;;;;5075937;28;20040;-89
2022/07/12 00:38:27;;;;;;;1.98;1.15;;;19.70;99.90;;;;;;5092208;28;20053;-89
2022/07/12 00:40:52;;;;;;;3.38;1.42;;;19.70;99.90;;;;;;5082532;28;20106;-89
2022/07/12 00:43:18;;;;;;;3.13;1.50;;;19.70;99.90;;;;;;5088619;28;20054;-89
2022/07/12 00:45:44;;;;;;;3.35;1.52;;;19.60;99.90;;;;;;5040472;28;20040;-90
2022/07/12 00:48:10;;;;;;;2.47;1.50;;;19.60;99.90;;;;;;5103685;28;20037;-89
2022/07/12 00:50:36;;;;;;;3.55;1.60;;;19.60;99.90;;;;;;5089168;28;20041;-89
2022/07/12 00:53:02;;;;;;;2.33;1.70;;;19.50;99.90;;;;;;5028783;28;20026;-89
2022/07/12 00:55:27;;;;;;;3.15;1.58;;;19.50;99.90;;;;;;5086754;28;20079;-89
2022/07/12 00:57:53;;;;;;;2.00;1.80;;;19.50;99.90;;;;;;5086060;28;20026;-89
2022/07/12 01:00:27;;;;;;;2.42;1.70;;;19.50;99.90;;;;;;5086232;28;20036;-89
2022/07/12 01:02:55;;;;;;;2.67;2.00;;;19.40;99.90;;;;;;5088731;28;20018;-90
2022/07/12 01:05:22;;;;;;;1.80;1.60;;;19.40;99.90;;;;;;5049193;28;20109;-89
2022/07/12 01:07:49;;;;;;;2.95;2.05;;;19.40;99.90;;;;;;5029137;28;20068;-89
2022/07/12 01:10:14;;;;;;;2.60;1.90;;;19.40;99.90;;;;;;5082945;28;20074;-88
2022/07/12 01:12:40;;;;;;;3.80;1.90;;;19.40;99.90;;;;;;5082858;28;20116;-87
2022/07/12 01:15:07;;;;;;;3.17;1.88;;;19.40;99.90;;;;;;5088450;28;20033;-89
2022/07/12 01:17:33;;;;;;;2.60;1.90;;;19.30;99.90;;;;;;5034692;28;20022;-89
2022/07/12 01:19:59;;;;;;;3.72;2.00;;;19.30;99.90;;;;;;5077519;28;20167;-89
2022/07/12 01:22:31;;;;;;;4.05;2.20;;;19.30;99.90;;;;;;5075509;28;20060;-89
2022/07/12 01:24:57;;;;;;;2.63;2.03;;;19.30;99.90;;;;;;5033390;28;20029;-90
2022/07/12 01:27:23;;;;;;;3.53;2.10;;;19.20;99.90;;;;;;5034518;28;20025;-90
2022/07/12 01:29:49;;;;;;;4.72;2.15;;;19.20;99.90;;;;;;5049253;28;20021;-88
2022/07/12 01:32:29;;;;;;;3.30;2.00;;;19.20;99.90;;;;;;5109505;28;20043;-89
2022/07/12 01:34:57;;;;;;;3.63;2.22;;;19.20;99.90;;;;;;5094968;27;20438;-88
2022/07/12 01:37:24;;;;;;;3.10;2.08;;;19.20;99.90;;;;;;5097866;28;20045;-88
2022/07/12 01:39:55;;;;;;;3.40;2.00;;;19.10;99.90;;;;;;5077791;28;20014;-89
2022/07/12 01:42:23;;;;;;;2.65;1.92;;;19.10;99.90;;;;;;5100875;28;20077;-88
2022/07/12 01:44:50;;;;;;;2.38;1.90;;;19.10;99.90;;;;;;5092182;28;20029;-90
2022/07/12 01:47:20;;;;;;;3.30;2.00;;;19.10;99.90;;;;;;5099600;28;20045;-89
2022/07/12 01:49:46;;;;;;;2.70;1.90;;;19.00;99.90;;;;;;5094406;28;20109;-89
2022/07/12 01:52:12;;;;;;;2.53;1.90;;;19.00;99.90;;;;;;5083572;28;20714;-90
2022/07/12 01:54:38;;;;;;;4.70;2.10;;;19.00;99.90;;;;;;5091243;28;20359;-89
2022/07/12 01:57:04;;;;;;;2.35;1.80;;;19.00;99.90;;;;;;5078378;28;20038;-89
2022/07/12 01:59:31;;;;;;;4.20;1.90;;;19.00;99.90;;;;;;5087633;28;20477;-89
2022/07/12 02:01:57;;;;;;;2.33;1.75;;;18.90;99.90;;;;;;5029410;28;20022;-90
2022/07/12 02:04:23;;;;;;;2.92;1.80;;;18.90;99.90;;;;;;5092403;28;20025;-90
2022/07/12 02:06:49;;;;;;;2.17;1.98;;;18.90;99.90;;;;;;5099188;28;20034;-90
2022/07/12 02:09:16;;;;;;;2.03;1.40;;;18.90;99.90;;;;;;5081559;28;20462;-87
2022/07/12 02:11:43;;;;;;;1.60;1.40;;;18.80;99.90;;;;;;5047718;28;20206;-89
2022/07/12 02:14:09;;;;;;;1.73;1.20;;;18.80;99.90;;;;;;5019681;28;20057;-90
2022/07/12 02:16:35;;;;;;;1.83;1.30;;;18.80;99.90;;;;;;5071721;28;20465;-87
2022/07/12 02:19:02;;;;;;;1.83;1.30;;;18.80;99.90;;;;;;5027802;28;20059;-87
2022/07/12 02:21:28;;;;;;;1.63;1.38;;;18.70;99.90;;;;;;5092182;28;20396;-87
2022/07/12 02:23:53;;;;;;;3.45;1.60;;;18.70;99.90;;;;;;5086559;28;20033;-87
2022/07/12 02:26:19;;;;;;;3.25;1.70;;;18.70;99.90;;;;;;5032614;28;20025;-88
2022/07/12 02:28:45;;;;;;;2.00;1.80;;;18.70;99.90;;;;;;5061782;28;20533;-87
2022/07/12 02:31:11;;;;;;;3.20;1.50;;;18.60;99.90;;;;;;5025474;28;20116;-89
2022/07/12 02:33:37;;;;;;;1.25;1.15;;;18.60;99.90;;;;;;5064363;28;20108;-89
2022/07/12 02:36:06;;;;;;;1.70;1.48;;;18.60;99.90;;;;;;5083819;28;20041;-88
2022/07/12 02:38:32;;;;;;;1.95;1.45;;;18.60;99.90;;;;;;5089861;28;20037;-89
2022/07/12 02:40:57;;;;;;;1.63;1.30;;;18.50;99.90;;;;;;5077392;28;20033;-88
2022/07/12 02:43:28;;;;;;;1.38;1.25;;;18.50;99.90;;;;;;5089826;28;20533;-88
2022/07/12 02:46:02;;;;;;;1.95;1.40;;;18.50;99.90;;;;;;5086612;28;20017;-89
2022/07/12 02:48:27;;;;;;;2.33;1.40;;;18.50;99.90;;;;;;5054518;28;20108;-88
2022/07/12 02:50:53;;;;;;;1.60;1.20;;;18.40;99.90;;;;;;5052792;28;20504;-88
2022/07/12 02:53:18;;;;;;;1.50;1.33;;;18.40;99.90;;;;;;5094193;28;20034;-89
2022/07/12 02:55:44;;;;;;;1.88;1.40;;;18.40;99.90;;;;;;5093648;28;20392;-89
2022/07/12 02:58:11;;;;;;;4.50;1.65;;;18.40;99.90;;;;;;5083262;28;20029;-88
2022/07/12 03:00:38;;;;;;;1.73;1.58;;;18.40;99.90;;;;;;5073586;28;20030;-88
2022/07/12 03:03:03;;;;;;;1.92;1.48;;;18.30;99.90;;;;;;5094043;28;20022;-87
2022/07/12 03:05:29;;;;;;;2.40;1.90;;;18.30;99.90;;;;;;5022491;28;20026;-89
2022/07/12 03:07:55;;;;;;;3.60;2.28;;;18.20;99.90;;;;;;5100352;28;20480;-89
2022/07/12 03:10:20;;;;;;;2.20;1.60;;;18.30;99.90;;;;;;5069097;28;20033;-90
2022/07/12 03:12:46;;;;;;;3.40;1.90;;;18.20;99.90;;;;;;5093001;28;20125;-89
2022/07/12 03:15:12;;;;;;;2.13;1.90;;;18.20;99.90;;;;;;5080232;28;20041;-88
2022/07/12 03:17:37;;;;;;;3.03;2.58;;;18.20;99.90;;;;;;5079866;28;20030;-89
2022/07/12 03:20:10;;;;;;;4.22;3.10;;;18.20;99.90;;;;;;5097009;28;20030;-89
2022/07/12 03:22:36;;;;;;;5.90;3.38;;;18.20;99.90;;;;;;5104987;27;20132;-90
2022/07/12 03:25:02;;;;;;;4.75;3.53;;;18.20;99.90;;;;;;5083226;28;20499;-89
2022/07/12 03:27:27;;;;;;;5.15;3.88;;;18.20;99.90;;;;;;5083271;28;20033;-89
2022/07/12 03:29:53;;;;;;;5.20;3.80;;;18.20;99.90;;;;;;5085737;28;20026;-88
2022/07/12 03:32:19;;;;;;;6.45;3.95;;;18.20;99.90;;;;;;5082755;28;20071;-88
2022/07/12 03:34:44;;;;;;;5.88;4.68;;;18.20;99.90;;;;;;5031046;28;20075;-88
2022/07/12 03:37:10;;;;;;;5.35;4.63;;;18.20;99.90;;;;;;5079713;28;20439;-88
2022/07/12 03:39:35;;;;;;;6.30;5.13;;;18.20;99.90;;;;;;5091941;28;20040;-89
2022/07/12 03:42:01;;;;;;;6.18;5.20;;;18.20;99.90;;;;;;5079423;28;20030;-88
2022/07/12 03:44:30;;;;;;;5.70;4.70;;;18.20;99.90;;;;;;5073065;28;20033;-88
2022/07/12 03:46:56;;;;;;;7.28;4.93;;;18.20;99.90;;;;;;5083160;28;20037;-89
2022/07/12 03:49:21;;;;;;;7.30;4.70;;;18.20;99.90;;;;;;5050490;28;20188;-88
2022/07/12 03:51:47;;;;;;;5.70;4.85;;;18.20;99.90;;;;;;5084821;28;20029;-88
2022/07/12 03:54:12;;;;;;;5.93;5.00;;;18.20;99.90;;;;;;5082764;28;20026;-88
2022/07/12 03:59:22;;;;;;;6.90;5.50;;;18.20;99.90;;;;;;5089021;28;20040;-88
2022/07/12 04:01:47;;;;;;;7.15;5.88;;;18.20;99.90;;;;;;5082795;28;20025;-90
2022/07/12 04:04:14;;;;;;;6.68;5.97;;;18.10;99.90;;;;;;5082047;28;20492;-88
2022/07/12 04:06:39;;;;;;;6.35;5.38;;;18.10;99.90;;;;;;5082564;28;20472;-89
2022/07/12 04:09:06;;;;;;;6.55;5.60;;;18.10;99.90;;;;;;5083067;28;20028;-89
2022/07/12 04:11:33;;;;;;;6.28;5.13;;;18.10;99.90;;;;;;5082780;28;20024;-88
2022/07/12 04:13:58;;;;;;;5.90;5.07;;;18.10;99.90;;;;;;5084388;28;20032;-90
2022/07/12 04:16:24;;;;;;;6.95;5.20;;;18.10;99.90;;;;;;5079066;28;20042;-89
2022/07/12 04:18:50;;;;;;;5.45;4.78;;;18.10;99.90;;;;;;5079350;28;20552;-89
2022/07/12 04:21:15;;;;;;;5.57;4.75;;;18.10;99.90;;;;;;5079490;28;20053;-89
2022/07/12 04:23:41;;;;;;;5.55;4.95;;;18.10;99.90;;;;;;5055860;28;20453;-89
2022/07/12 04:26:07;;;;;;;5.35;4.57;;;18.10;99.90;;;;;;5017111;28;20030;-89
2022/07/12 04:28:32;;;;;;;5.32;4.55;;;18.10;99.90;;;;;;5030923;28;20033;-89
2022/07/12 04:30:58;;;;;;;6.47;5.03;;;18.10;99.90;;;;;;5085948;28;20079;-88
2022/07/12 04:33:24;;;;;;;6.15;5.55;;;18.10;99.90;;;;;;5082357;28;20471;-90
2022/07/12 04:35:49;;;;;;;6.75;5.72;;;18.10;99.90;;;;;;5087488;28;20041;-88
2022/07/12 04:38:15;;;;;;;7.78;6.18;;;18.10;99.90;;;;;;5092954;28;20037;-89
2022/07/12 04:40:40;;;;;;;6.68;5.97;;;18.10;99.90;;;;;;5068482;28;20038;-89
2022/07/12 04:43:06;;;;;;;6.80;5.72;;;18.10;99.90;;;;;;5066033;28;20030;-88
2022/07/12 04:45:31;;;;;;;6.95;6.25;;;18.10;99.90;;;;;;5066441;28;20092;-88
2022/07/12 04:47:58;;;;;;;7.05;6.13;;;18.10;99.90;;;;;;5078871;28;20045;-88
2022/07/12 04:50:23;;;;;;;6.28;5.68;;;18.10;99.90;;;;;;5084268;28;20029;-89
2022/07/12 04:52:49;;;;;;;6.93;6.22;;;18.10;99.90;;;;;;5082257;28;20074;-88
2022/07/12 04:55:14;;;;;;;7.22;6.43;;;18.10;99.90;;;;;;5082010;28;20515;-89
2022/07/12 04:57:40;;;;;;;7.22;6.53;;;18.10;99.90;;;;;;5082340;28;20042;-88
2022/07/12 05:00:07;;;;;;;6.63;5.93;;;18.10;99.90;;;;;;5031652;28;20060;-89
2022/07/12 05:02:33;;;;;;;7.72;6.78;;;18.10;99.90;;;;;;5095072;28;20032;-88
2022/07/12 05:04:58;;;;;;;6.95;6.25;;;18.10;99.90;;;;;;5055664;28;20082;-88
2022/07/12 05:07:24;;;;;;;6.85;5.88;;;18.10;99.90;;;;;;5023478;28;20033;-88
2022/07/12 05:09:51;;;;;;;9.15;7.40;;;18.10;99.90;;;;;;5062171;28;20553;-89
2022/07/12 05:12:17;;;;;;;6.82;6.13;;;18.10;99.90;;;;;;5025744;28;20037;-89
2022/07/12 05:14:43;;;;;;;8.05;6.68;;;18.20;99.90;;;;;;5088191;28;20083;-88
2022/07/12 05:17:09;;;;;;;7.55;6.80;;;18.20;99.90;;;;;;5045708;28;20047;-86
2022/07/12 05:19:34;;;;;;;7.63;6.20;;;18.20;99.90;;;;;;5118928;28;20029;-91
2022/07/12 05:22:02;;;;;;;7.97;6.28;;;18.20;99.90;;;;;;5111358;28;20057;-92
2022/07/12 05:24:27;;;;;;;7.35;6.60;;;18.20;99.90;;;;;;5050685;28;20010;-89
2022/07/12 05:26:53;;;;;;;7.28;6.57;;;18.20;99.90;;;;;;5051748;28;20471;-88
2022/07/12 05:29:19;;;;;;;8.20;7.35;;;18.30;99.90;;;;;;5077702;28;20022;-89
2022/07/12 05:31:44;;;;;;;9.13;6.80;;;18.30;99.90;;;;;;5097488;28;20026;-89
2022/07/12 05:34:10;;;;;;;7.18;6.47;;;18.30;99.90;;;;;;5074923;28;20449;-88
2022/07/12 05:36:36;;;;;;;8.20;7.40;;;18.30;99.90;;;;;;5086226;28;20044;-89
2022/07/12 05:39:01;;;;;;;8.25;7.10;;;18.30;99.90;;;;;;5092262;28;20041;-88
2022/07/12 05:41:27;;;;;;;8.52;7.45;;;18.40;99.90;;;;;;5078353;28;20029;-90
2022/07/12 05:43:53;;;;;;;8.32;7.53;;;18.40;99.90;;;;;;5082100;28;20413;-88
2022/07/12 05:46:18;;;;;;;9.75;7.70;;;18.40;99.90;;;;;;5034274;28;20078;-89
2022/07/12 05:48:44;;;;;;;7.75;6.32;;;18.40;99.90;;;;;;5084994;28;20467;-88
2022/07/12 05:53:53;;;;;;;7.82;7.03;;;18.50;99.90;;;;;;5020483;28;20064;-88
2022/07/12 05:56:20;;;;;;;8.27;7.40;;;18.50;99.90;;;;;;5022091;28;20029;-88
2022/07/12 05:58:45;;;;;;;7.68;6.88;;;18.50;99.90;;;;;;5043592;28;20037;-88
2022/07/12 06:01:11;;;;;;;7.22;6.53;;;18.50;99.90;;;;;;5101724;28;20130;-88
2022/07/12 06:03:37;;;;;;;7.90;7.13;;;18.50;99.90;;;;;;5101366;28;20017;-88
2022/07/12 06:06:03;;;;;;;8.05;6.63;;;18.60;99.90;;;;;;5085123;28;20075;-89
2022/07/12 06:08:29;;;;;;;8.77;7.97;;;18.60;99.90;;;;;;5048090;28;20029;-89
2022/07/12 06:10:54;;;;;;;7.18;6.47;;;18.60;99.90;;;;;;5083744;27;20018;-88
2022/07/12 06:13:20;;;;;;;7.85;7.07;;;18.70;99.90;;;;;;5091835;28;20457;-88
2022/07/12 06:15:46;;;;;;;10.43;9.43;;;18.80;99.90;;;;;;5072591;28;20030;-89
2022/07/12 06:18:11;;;;;;;9.02;8.23;;;18.80;99.90;;;;;;5052136;28;20486;-89
2022/07/12 06:20:37;;;;;;;8.13;7.32;;;18.80;99.90;;;;;;5057752;28;20089;-88
2022/07/12 06:23:02;;;;;;;8.45;7.65;;;18.90;99.90;;;;;;5070587;28;20036;-89
2022/07/12 06:25:28;;;;;;;9.60;8.77;;;18.90;99.90;;;;;;5081040;28;20056;-89
2022/07/12 06:27:54;;;;;;;10.00;9.00;;;19.00;99.90;;;;;;5055796;28;20098;-89
2022/07/12 06:30:21;;;;;;;9.98;8.90;;;19.00;99.90;;;;;;5051777;28;20039;-88
2022/07/12 06:32:50;;;;;;;10.38;9.38;;;19.00;99.90;;;;;;5057563;28;20030;-89
2022/07/12 06:35:16;;;;;;;11.38;10.27;;;19.10;99.90;;;;;;5101974;28;20025;-90
2022/07/12 06:37:42;;;;;;;10.85;9.93;;;19.10;99.90;;;;;;5074026;28;20030;-90
2022/07/12 06:40:08;;;;;;;10.52;9.52;;;19.20;99.90;;;;;;5068611;28;20038;-89
2022/07/12 06:42:35;;;;;;;11.13;10.13;;;19.20;99.90;;;;;;5023500;28;20100;-90
2022/07/12 06:45:01;;;;;;;11.07;9.93;;;19.30;99.90;;;;;;5088605;28;20018;-90
2022/07/12 06:47:26;;;;;;;12.23;11.13;;;19.30;99.90;;;;;;5093571;28;20021;-89
2022/07/12 06:49:52;;;;;;;12.55;11.30;;;19.40;99.90;;;;;;5090157;28;20762;-89
2022/07/12 06:52:18;;;;;;;12.43;10.05;;;19.40;99.90;;;;;;5023025;28;20034;-90
2022/07/12 06:54:44;;;;;;;11.40;9.85;;;19.40;99.90;;;;;;5019749;28;20026;-90
2022/07/12 06:57:10;;;;;;;15.50;13.90;;;19.50;99.90;;;;;;5021604;28;20030;-90
2022/07/12 06:59:36;;;;;;;13.20;11.82;;;19.50;99.90;;;;;;5088720;28;20109;-90
2022/07/12 07:02:02;;;;;;;12.48;10.60;;;19.60;99.90;;;;;;5080473;28;20560;-89
2022/07/12 07:04:27;;;;;;;11.40;10.38;;;19.60;99.90;;;;;;5096164;28;20138;-90
2022/07/12 07:06:53;;;;;;;9.90;8.90;;;19.70;99.90;;;;;;5078586;28;20029;-90
2022/07/12 07:09:19;;;;;;;9.98;9.07;;;19.70;99.90;;;;;;5083810;28;20052;-90
2022/07/12 07:11:45;;;;;;;9.43;8.15;;;19.80;99.90;;;;;;5029125;28;20057;-89
2022/07/12 07:14:11;;;;;;;7.60;6.65;;;19.90;99.90;;;;;;5028584;28;20481;-89
2022/07/12 07:16:37;;;;;;;8.52;7.35;;;19.90;99.90;;;;;;5078509;28;20034;-90
2022/07/12 07:19:03;;;;;;;6.38;5.78;;;20.00;99.90;;;;;;5098499;28;20124;-91
2022/07/12 07:21:28;;;;;;;8.30;6.13;;;20.10;99.90;;;;;;5099579;28;20040;-91
2022/07/12 07:23:55;;;;;;;6.80;5.70;;;20.10;99.90;;;;;;5025918;28;20026;-90
2022/07/12 07:26:21;;;;;;;6.13;5.40;;;20.20;99.90;;;;;;5099994;28;20085;-90
2022/07/12 07:31:37;;;;;;;6.38;5.78;;;20.40;99.90;;;;;;5088170;28;20051;-87
2022/07/12 07:34:04;;;;;;;5.05;4.55;;;20.50;99.90;;;;;;5099945;28;20018;-87
2022/07/12 07:36:30;;;;;;;9.95;6.40;;;20.60;99.90;;;;;;5097444;28;20022;-88
2022/07/12 07:38:57;;;;;;;6.55;5.85;;;20.70;99.90;;;;;;5083542;28;20029;-90
2022/07/12 07:41:23;;;;;;;5.95;5.25;;;20.70;99.90;;;;;;5097421;28;20096;-87
2022/07/12 07:43:48;;;;;;;8.25;5.93;;;20.80;99.90;;;;;;5049978;28;20029;-89
2022/07/12 07:46:14;;;;;;;7.07;5.28;;;21.00;99.90;;;;;;5080458;28;20029;-90
2022/07/12 07:48:39;;;;;;;6.57;4.20;;;21.00;99.90;;;;;;5095008;28;20029;-83
2022/07/12 07:51:05;;;;;;;5.97;4.68;;;21.10;99.90;;;;;;5096531;28;20040;-83
2022/07/12 07:53:31;;;;;;;6.53;5.45;;;21.10;99.90;;;;;;5095787;28;20063;-84
2022/07/12 07:55:57;;;;;;;8.45;4.93;;;21.20;99.90;;;;;;5030355;28;20108;-83
2022/07/12 07:58:23;;;;;;;5.70;4.93;;;21.30;99.90;;;;;;5062753;28;20025;-83
2022/07/12 08:00:52;;;;;;;5.38;4.63;;;21.30;99.90;;;;;;5081664;28;20102;-84
2022/07/12 08:03:22;;;;;;;5.57;4.80;;;21.40;99.90;;;;;;5030281;28;20024;-85
2022/07/12 08:05:50;;;;;;;5.90;4.43;;;21.40;99.90;;;;;;5064715;28;20116;-85
2022/07/12 08:08:17;;;;;;;6.55;4.93;;;21.50;99.90;;;;;;5098961;28;20025;-83
2022/07/12 08:10:43;;;;;;;7.35;5.20;;;21.60;99.90;;;;;;5095747;28;20024;-84
2022/07/12 08:13:09;;;;;;;7.78;5.43;;;21.70;99.90;;;;;;5088615;28;20382;-83
2022/07/12 08:15:35;;;;;;;6.45;5.00;;;21.70;99.90;;;;;;5092261;28;20496;-84
2022/07/12 08:18:00;;;;;;;6.82;5.20;;;21.80;99.90;;;;;;5082279;28;20105;-84
2022/07/12 08:20:29;;;;;;;4.93;4.10;;;21.90;99.90;;;;;;5082866;28;20053;-83
2022/07/12 08:22:55;;;;;;;5.57;4.50;;;22.00;99.90;;;;;;5116533;28;20044;-84
2022/07/12 08:25:21;;;;;;;5.53;4.57;;;22.10;99.90;;;;;;5095228;28;20542;-85
2022/07/12 08:27:48;;;;;;;5.07;4.38;;;22.10;99.90;;;;;;5111652;28;20114;-84
2022/07/12 08:30:15;;;;;;;7.07;3.63;;;22.20;99.90;;;;;;5112470;28;20398;-84
2022/07/12 08:32:47;;;;;;;4.65;3.40;;;22.30;99.90;;;;;;5111944;28;20035;-82
2022/07/12 08:35:16;;;;;;;4.40;3.20;;;22.40;99.90;;;;;;5095041;28;20024;-84
2022/07/12 08:37:42;;;;;;;6.35;4.53;;;22.40;99.90;;;;;;5111955;28;20072;-85
2022/07/12 08:40:09;;;;;;;4.97;3.78;;;22.50;99.90;;;;;;5112216;28;20032;-85
2022/07/12 08:42:35;;;;;;;5.20;3.65;;;22.60;99.90;;;;;;5095231;28;20022;-82
2022/07/12 08:45:00;;;;;;;5.00;3.22;;;22.70;99.90;;;;;;5112716;28;20027;-83
2022/07/12 08:47:26;;;;;;;5.63;4.32;;;22.70;99.90;;;;;;5114295;28;20028;-84
2022/07/12 08:50:20;;;;;;;6.35;3.88;;;22.70;99.90;;;;;;5096387;28;20104;-84
2022/07/12 08:52:52;;;;;;;4.85;3.08;;;22.80;99.90;;;;;;5096606;28;20032;-83
2022/07/12 08:55:29;;;;;;;6.25;3.55;;;22.90;99.90;;;;;;5115284;28;20016;-83
2022/07/12 08:57:57;;;;;;;4.70;3.45;;;22.90;99.90;;;;;;5132178;28;20024;-85
2022/07/12 09:00:24;;;;;;;5.78;3.10;;;23.00;99.90;;;;;;5136606;28;20166;-81
2022/07/12 09:02:58;;;;;;;5.35;3.58;;;23.00;99.90;;;;;;5111890;28;20045;-83
2022/07/12 09:05:28;;;;;;;3.75;2.53;;;23.10;99.90;;;;;;5129052;28;20028;-84
2022/07/12 09:08:05;;;;;;;5.18;2.72;;;23.20;99.90;;;;;;5129219;28;20054;-83
2022/07/12 09:10:32;;;;;;;3.20;1.95;;;23.20;99.90;;;;;;5123830;28;20023;-83
2022/07/12 09:12:57;;;;;;;2.50;1.85;;;23.30;99.90;;;;;;5115638;28;20028;-82
2022/07/12 09:15:25;;;;;;;2.65;1.90;;;23.40;99.90;;;;;;5109721;28;20039;-83
2022/07/12 09:18:03;;;;;;;3.45;2.10;;;23.40;99.90;;;;;;5117009;28;20110;-83
2022/07/12 09:20:36;;;;;;;4.63;2.80;;;23.50;99.90;;;;;;5118133;28;20027;-83
2022/07/12 09:23:34;;;;;;;4.25;2.83;;;23.60;99.90;;;;;;5118253;28;20159;-83
2022/07/12 09:26:07;;;;;;;4.05;2.60;;;23.70;99.90;;;;;;5101744;28;20021;-83
2022/07/12 09:28:33;;;;;;;3.42;2.42;;;23.70;99.90;;;;;;5117327;28;20134;-83
2022/07/12 09:30:58;;;;;;;3.72;2.20;;;23.80;99.90;;;;;;5115677;28;20057;-83
2022/07/12 09:36:10;;;;;;;2.30;2.00;;;23.90;99.90;;;;;;5116955;28;20088;-83
2022/07/12 09:38:52;;;;;;;3.33;1.95;;;23.90;99.90;;;;;;5116142;28;20104;-84
2022/07/12 09:41:20;;;;;;;1.70;1.35;;;24.00;99.80;;;;;;5115755;28;20046;-81
2022/07/12 09:43:46;;;;;;;2.85;2.05;;;24.10;99.80;;;;;;5116907;28;20027;-81
2022/07/12 09:46:14;;;;;;;5.55;1.70;;;24.10;99.20;;;;;;5116998;28;20486;-82
2022/07/12 09:48:41;;;;;;;3.13;1.60;;;24.20;98.50;;;;;;5116484;28;20024;-81
2022/07/12 09:51:09;;;;;;;6.97;2.40;;;24.20;97.70;;;;;;5116941;28;20102;-81
2022/07/12 09:53:41;;;;;;;5.25;2.10;;;24.30;97.60;;;;;;5116380;28;20012;-81
2022/07/12 09:56:10;;;;;;;4.85;2.10;;;24.40;97.30;;;;;;5099018;28;20028;-81
2022/07/12 09:58:56;;;;;;;2.13;1.67;;;24.40;96.90;;;;;;5116520;28;20028;-82
2022/07/12 10:01:23;;;;;;;4.80;2.00;;;24.50;96.90;;;;;;5116968;28;20031;-82
2022/07/12 10:03:50;;;;;;;2.83;1.88;;;24.50;96.80;;;;;;5084706;28;20076;-81
2022/07/12 10:06:34;;;;;;;5.00;1.88;;;24.60;96.40;;;;;;5117893;28;20030;-83
2022/07/12 10:08:59;;;;;;;5.03;2.35;;;24.70;95.60;;;;;;5114868;28;20027;-83
2022/07/12 10:11:25;;;;;;;2.65;2.30;;;24.80;94.80;;;;;;5117903;28;20046;-84
2022/07/12 10:13:53;;;;;;;4.45;2.45;;;24.80;95.00;;;;;;5102959;28;20028;-83
2022/07/12 10:16:29;;;;;;;3.53;2.08;;;24.90;94.50;;;;;;5115341;28;20515;-82
2022/07/12 10:19:31;;;;;;;3.47;1.75;;;24.90;94.50;;;;;;5114943;28;20038;-83
2022/07/12 10:21:58;;;;;;;3.40;1.50;;;25.00;94.90;;;;;;5103931;28;20120;-83
2022/07/12 10:24:33;;;;;;;2.50;1.80;;;25.10;95.20;;;;;;5117149;28;20024;-83
2022/07/12 10:27:13;;;;;;;2.13;1.60;;;25.10;95.50;;;;;;5114686;28;20051;-84
2022/07/12 10:29:48;;;;;;;2.22;1.70;;;25.20;95.40;;;;;;5116378;28;20486;-84
2022/07/12 10:32:26;;;;;;;2.40;2.20;;;25.30;95.20;;;;;;5116032;28;20132;-83
2022/07/12 10:35:05;;;;;;;4.65;2.00;;;25.40;94.50;;;;;;5115833;28;20094;-83
2022/07/12 10:37:33;;;;;;;2.20;1.63;;;25.40;93.50;;;;;;5114881;28;20019;-90
2022/07/12 10:40:16;;;;;;;2.83;1.98;;;25.50;93.50;;;;;;5114868;28;20024;-92
2022/07/12 10:43:13;;;;;;;2.67;1.50;;;25.50;93.20;;;;;;5095130;28;20045;-92
2022/07/12 10:45:41;;;;;;;3.15;2.10;;;25.50;93.20;;;;;;5105349;28;20016;-87
2022/07/12 10:48:09;;;;;;;6.32;2.78;;;25.60;93.40;;;;;;5114698;28;20038;-86
2022/07/12 10:53:18;;;;;;;2.78;1.60;;;25.70;92.90;;;;;;5114494;28;20134;-79
2022/07/12 10:56:04;;;;;;;3.70;1.92;;;25.80;93.00;;;;;;5114684;28;20030;-81
2022/07/12 10:58:42;;;;;;;2.53;1.67;;;25.90;93.00;;;;;;5114487;28;20027;-80
2022/07/12 11:01:14;;;;;;;2.72;2.08;;;25.90;93.00;;;;;;5113362;28;20446;-81
2022/07/12 11:03:47;;;;;;;2.83;2.00;;;26.00;92.60;;;;;;5112712;28;20020;-84
2022/07/12 11:06:15;;;;;;;4.38;2.00;;;26.10;92.30;;;;;;5115377;28;20016;-85
2022/07/12 11:08:47;;;;;;;2.28;1.48;;;26.10;92.00;;;;;;5114506;28;20024;-85
2022/07/12 11:11:13;;;;;;;3.08;1.58;;;26.20;91.70;;;;;;5113470;28;20027;-85
2022/07/12 11:13:39;;;;;;;2.08;1.85;;;26.20;91.70;;;;;;5084650;28;20404;-85
2022/07/12 11:16:05;;;;;;;2.97;1.63;;;26.30;91.30;;;;;;5111063;28;20030;-85
2022/07/12 11:18:32;;;;;;;1.83;1.52;;;26.40;90.60;;;;;;5096038;28;20459;-86
2022/07/12 11:20:59;;;;;;;3.13;1.55;;;26.40;90.40;;;;;;5083379;28;20118;-86
2022/07/12 11:23:28;;;;;;;4.28;1.70;;;26.50;90.00;;;;;;5102850;28;20030;-90
2022/07/12 11:25:55;;;;;;;1.35;1.15;;;26.50;90.00;;;;;;5036945;28;20030;-86
2022/07/12 11:28:23;;;;;;;3.25;1.50;;;26.60;89.90;;;;;;5088128;28;20397;-92
2022/07/12 11:30:52;;;;;;;2.90;1.90;;;26.60;89.20;;;;;;5104796;28;20083;-85
2022/07/12 11:33:19;;;;;;;3.35;1.60;;;26.70;87.90;;;;;;5035111;28;20017;-92
2022/07/12 11:35:46;;;;;;;2.08;1.50;;;26.70;86.30;;;;;;5099747;28;20029;-92
2022/07/12 11:38:13;;;;;;;4.47;1.60;;;26.80;86.60;;;;;;5099705;28;20036;-89
2022/07/12 11:40:38;;;;;;;1.98;1.60;;;26.90;86.10;;;;;;5100100;28;20022;-92
2022/07/12 11:43:05;;;;;;;5.30;2.65;;;26.90;84.60;;;;;;5109009;28;20025;-93
2022/07/12 11:45:34;;;;;;;2.33;1.77;;;26.90;84.90;;;;;;5101598;28;20093;-91
2022/07/12 11:48:02;;;;;;;3.67;2.42;;;27.00;86.10;;;;;;5086063;28;20073;-79
2022/07/12 11:50:31;;;;;;;3.95;2.55;;;27.10;85.90;;;;;;5030619;28;20018;-80
2022/07/12 11:52:57;;;;;;;2.53;1.90;;;27.10;85.40;;;;;;5030242;28;20030;-79
2022/07/12 11:55:23;;;;;;;3.70;2.47;;;27.20;85.50;;;;;;5031197;28;20082;-87
2022/07/12 11:57:49;;;;;;;2.65;2.00;;;27.30;85.30;;;;;;5099052;28;20041;-89
2022/07/12 12:00:26;;;;;;;4.43;2.72;;;27.30;85.60;;;;;;5030550;28;20033;-88
2022/07/12 12:02:54;;;;;;;3.33;2.30;;;27.40;86.80;;;;;;5058886;28;20430;-90
2022/07/12 12:05:23;;;;;;;2.72;2.20;;;27.50;87.20;;;;;;5081504;28;20491;-87
2022/07/12 12:07:49;;;;;;;5.93;2.55;;;27.50;87.20;;;;;;5072729;28;20117;-88
2022/07/12 12:10:17;;;;;;;2.25;1.80;;;27.60;87.20;;;;;;5077522;28;20195;-88
2022/07/12 12:12:57;;;;;;;3.80;1.85;;;27.70;87.00;;;;;;5099006;28;20469;-87
2022/07/12 12:15:24;;;;;;;2.85;2.30;;;27.70;86.10;;;;;;5100109;28;20112;-89
2022/07/12 12:17:58;;;;;;;3.90;2.80;;;27.70;85.00;;;;;;5082622;28;20045;-89
2022/07/12 12:20:27;;;;;;;3.22;2.58;;;27.80;82.00;;;;;;5021765;28;20026;-89
2022/07/12 12:22:55;;;;;;;4.70;2.70;;;27.90;81.60;;;;;;5098720;28;20042;-89
2022/07/12 12:25:21;;;;;;;2.90;2.13;;;27.90;80.60;;;;;;5055087;28;20029;-89
2022/07/12 12:27:57;;;;;;;3.78;2.65;;;27.90;80.30;;;;;;5030713;28;20026;-89
2022/07/12 12:30:24;;;;;;;2.33;2.13;;;28.00;80.10;;;;;;5099223;28;20074;-89
2022/07/12 12:32:57;;;;;;;4.15;2.90;;;28.00;81.00;;;;;;5098651;28;20029;-87
2022/07/12 12:35:33;;;;;;;4.75;1.90;;;28.10;81.60;;;;;;5082726;28;20461;-87
2022/07/12 12:38:10;;;;;;;5.95;2.72;;;28.10;81.10;;;;;;5032039;28;20029;-87
2022/07/12 12:40:38;;;;;;;5.32;3.08;;;28.20;80.50;;;;;;5103443;28;20032;-84
2022/07/12 12:43:12;;;;;;;3.05;2.63;;;28.30;78.50;;;;;;5054437;28;20030;-88
2022/07/12 12:45:55;;;;;;;4.53;2.50;;;28.20;78.10;;;;;;5055652;28;20021;-86
2022/07/12 12:48:23;;;;;;;3.25;2.30;;;28.30;77.10;;;;;;5123363;28;20034;-86
2022/07/12 12:50:50;;;;;;;3.72;2.63;;;28.30;76.50;;;;;;5080629;28;20014;-86
2022/07/12 12:53:23;;;;;;;5.10;2.15;;;28.30;77.20;;;;;;5075889;28;20025;-87
2022/07/12 12:55:54;;;;;;;3.80;2.25;;;28.40;78.30;;;;;;5039188;28;20033;-85
2022/07/12 12:58:22;;;;;;;6.93;2.42;;;28.50;79.20;;;;;;5063202;28;20393;-85
2022/07/12 13:00:49;;;;;;;3.38;1.58;;;28.50;78.80;;;;;;5090153;28;20022;-85
2022/07/12 13:03:17;;;;;;;4.97;2.03;;;28.60;78.60;;;;;;5085629;28;20075;-85